Terminal Aerodrome Forecast
Issued by NWS North Platte, NE

Home | Current Version | Previous Version | Text Only | Print | Product List | Glossary On
Versions: 1 2 3 4 5 6 7 8 9 10 11 12 13 14 15 16 17 18 19 20 21
000
FTUS43 KLBF 180500
TAFVTN
TAF
KVTN 180520Z 1806/1906 02008KT 6SM -RA OVC050
     FM181000 05008KT 2SM RA OVC008
     FM181600 07010KT 4SM BR OVC011
     FM190400 33011G18KT P6SM OVC015=

USA.gov is the U.S. government's official web portal to all federal, state and local government web resources and services.